createdAt,value
2018-07-09T00:01:08.262Z,7.23
2018-07-09T00:03:36.666Z,9.57
2018-07-09T00:06:05.162Z,7.13
2018-07-09T00:08:33.588Z,7.53
2018-07-09T00:11:04.352Z,11.60
2018-07-09T00:13:33.817Z,8.70
2018-07-09T00:16:02.384Z,8.87
2018-07-09T00:18:31.035Z,6.27
2018-07-09T00:20:59.420Z,11.43
2018-07-09T00:23:27.936Z,9.80
2018-07-09T00:25:57.035Z,6.70
2018-07-09T00:28:25.772Z,6.97
2018-07-09T00:30:54.420Z,6.73
2018-07-09T00:33:23.096Z,6.80
2018-07-09T00:35:51.509Z,10.47
2018-07-09T00:38:20.283Z,5.63
2018-07-09T00:40:49.052Z,8.93
2018-07-09T00:43:17.681Z,6.63
2018-07-09T00:45:46.074Z,6.47
2018-07-09T00:48:14.522Z,7.03
2018-07-09T00:50:42.974Z,6.17
2018-07-09T00:53:11.727Z,7.63
2018-07-09T00:55:40.141Z,6.17
2018-07-09T00:58:09.238Z,7.00
2018-07-09T01:00:37.763Z,6.70
2018-07-09T01:03:06.375Z,7.07
2018-07-09T01:05:34.808Z,6.43
2018-07-09T01:08:03.265Z,8.13
2018-07-09T01:10:31.950Z,7.80
2018-07-09T01:13:00.272Z,9.57
2018-07-09T01:15:28.644Z,7.97
2018-07-09T01:17:57.331Z,10.87
2018-07-09T01:20:26.944Z,7.63
2018-07-09T01:22:55.429Z,9.83
2018-07-09T01:25:23.895Z,7.70
2018-07-09T01:27:52.365Z,7.90
2018-07-09T01:30:21.120Z,9.40
2018-07-09T01:32:49.518Z,10.23
2018-07-09T01:35:17.919Z,9.73
2018-07-09T01:37:46.232Z,8.63
2018-07-09T01:40:14.917Z,8.80
2018-07-09T01:42:43.589Z,9.37
2018-07-09T01:45:12.001Z,10.13
2018-07-09T01:47:41.023Z,10.00
2018-07-09T01:50:09.411Z,8.93
2018-07-09T01:52:38.188Z,9.30
2018-07-09T01:55:06.893Z,9.67
2018-07-09T01:57:35.296Z,10.70
2018-07-09T02:00:03.972Z,11.77
2018-07-09T02:02:32.405Z,10.80
2018-07-09T02:05:00.603Z,9.93
2018-07-09T02:07:29.301Z,10.23
2018-07-09T02:09:57.669Z,9.83
2018-07-09T02:12:25.992Z,8.87
2018-07-09T02:14:54.428Z,9.13
2018-07-09T02:17:22.882Z,8.73
2018-07-09T02:19:51.194Z,10.13
2018-07-09T02:22:19.569Z,12.00
2018-07-09T02:24:48.343Z,9.53
2018-07-09T02:27:16.770Z,10.00
2018-07-09T02:29:45.157Z,10.60
2018-07-09T02:32:14.153Z,9.37
2018-07-09T02:34:43.254Z,10.30
2018-07-09T02:37:12.429Z,10.63
2018-07-09T02:39:41.561Z,10.20
2018-07-09T02:42:10.770Z,10.70
2018-07-09T02:44:39.612Z,10.00
2018-07-09T02:47:08.074Z,10.30
2018-07-09T02:49:37.482Z,11.27
2018-07-09T02:52:06.273Z,10.77
2018-07-09T02:54:34.757Z,10.17
2018-07-09T02:57:03.139Z,12.50
2018-07-09T02:59:31.557Z,10.53
2018-07-09T03:02:00.216Z,11.33
2018-07-09T03:04:28.580Z,18.43
2018-07-09T03:06:57.016Z,12.40
2018-07-09T03:09:25.360Z,11.53
2018-07-09T03:11:57.127Z,10.80
2018-07-09T03:14:25.524Z,11.53
2018-07-09T03:16:53.878Z,12.73
2018-07-09T03:19:22.277Z,12.83
2018-07-09T03:21:50.683Z,13.17
2018-07-09T03:24:19.145Z,12.83
2018-07-09T03:26:47.512Z,10.87
2018-07-09T03:29:15.898Z,12.27
2018-07-09T03:31:44.281Z,12.07
2018-07-09T03:34:12.680Z,12.00
2018-07-09T03:36:41.193Z,12.03
2018-07-09T03:39:09.543Z,13.47
2018-07-09T03:41:37.975Z,14.10
2018-07-09T03:44:06.721Z,11.70
2018-07-09T03:46:35.114Z,12.43
2018-07-09T03:49:03.432Z,13.70
2018-07-09T03:51:31.833Z,13.83
2018-07-09T03:54:00.181Z,12.50
2018-07-09T03:56:28.595Z,16.23
2018-07-09T03:58:56.984Z,15.20
2018-07-09T04:01:25.333Z,17.30
2018-07-09T04:03:53.722Z,15.87
2018-07-09T04:06:22.320Z,13.20
2018-07-09T04:08:50.701Z,13.07
2018-07-09T04:11:19.057Z,13.63
2018-07-09T04:13:47.418Z,14.63
2018-07-09T04:16:15.819Z,15.17
2018-07-09T04:18:43.896Z,14.63
2018-07-09T04:21:12.248Z,16.37
2018-07-09T04:23:40.656Z,14.37
2018-07-09T04:26:09.016Z,13.30
2018-07-09T04:28:37.364Z,16.77
2018-07-09T04:31:05.741Z,15.23
2018-07-09T04:33:34.207Z,15.10
2018-07-09T04:36:02.597Z,15.90
2018-07-09T04:38:30.942Z,18.27
2018-07-09T04:40:59.352Z,16.23
2018-07-09T04:43:27.816Z,18.03
2018-07-09T04:45:56.181Z,15.63
2018-07-09T04:48:24.566Z,17.10
2018-07-09T04:50:52.907Z,17.67
2018-07-09T04:53:21.383Z,16.53
2018-07-09T04:55:49.811Z,17.70
2018-07-09T04:58:18.197Z,17.90
2018-07-09T05:00:46.582Z,20.70
2018-07-09T05:03:15.068Z,18.30
2018-07-09T05:05:43.185Z,21.00
2018-07-09T05:08:11.567Z,16.90
2018-07-09T05:10:39.942Z,16.53
2018-07-09T05:13:08.390Z,22.30
2018-07-09T05:15:37.065Z,17.37
2018-07-09T05:18:05.631Z,17.93
2018-07-09T05:20:34.094Z,18.10
2018-07-09T05:23:02.407Z,18.50
2018-07-09T05:25:30.848Z,21.07
2018-07-09T05:27:58.955Z,21.07
2018-07-09T05:30:27.615Z,19.23
2018-07-09T05:32:56.431Z,20.17
2018-07-09T05:35:24.848Z,20.23
2018-07-09T05:37:53.210Z,18.03
2018-07-09T05:40:21.979Z,23.10
2018-07-09T05:42:50.058Z,21.77
2018-07-09T05:45:18.564Z,20.27
2018-07-09T05:47:47.026Z,18.30
2018-07-09T05:50:15.423Z,21.90
2018-07-09T05:52:43.799Z,20.30
2018-07-09T05:55:12.233Z,17.20
2018-07-09T05:57:40.596Z,13.03
2018-07-09T06:00:09.002Z,15.47
2018-07-09T06:02:37.345Z,16.30
2018-07-09T06:05:05.833Z,18.30
2018-07-09T06:07:34.219Z,15.53
2018-07-09T06:10:02.677Z,16.30
2018-07-09T06:12:31.284Z,15.60
2018-07-09T06:14:59.740Z,15.77
2018-07-09T06:17:28.143Z,14.43
2018-07-09T06:19:56.489Z,17.97
2018-07-09T06:22:24.968Z,17.47
2018-07-09T06:24:53.357Z,16.47
2018-07-09T06:27:21.857Z,21.00
2018-07-09T06:29:50.224Z,22.47
2018-07-09T06:32:18.620Z,25.03
2018-07-09T06:34:47.432Z,20.63
2018-07-09T06:37:16.036Z,21.00
2018-07-09T06:39:44.418Z,21.80
2018-07-09T06:42:12.845Z,26.03
2018-07-09T06:44:41.450Z,22.83
2018-07-09T06:47:09.801Z,25.53
2018-07-09T06:49:38.178Z,25.03
2018-07-09T06:52:07.069Z,20.00
2018-07-09T06:54:35.765Z,24.43
2018-07-09T06:57:04.570Z,21.37
2018-07-09T06:59:33.033Z,22.60
2018-07-09T07:02:01.434Z,18.23
2018-07-09T07:04:30.176Z,19.03
2018-07-09T07:06:58.636Z,15.30
2018-07-09T07:09:27.301Z,15.10
2018-07-09T07:11:55.809Z,15.53
2018-07-09T07:14:25.578Z,13.97
2018-07-09T07:16:54.217Z,17.03
2018-07-09T07:19:22.370Z,15.27
2018-07-09T07:21:50.739Z,18.13
2018-07-09T07:24:20.501Z,12.83
2018-07-09T07:26:49.010Z,13.17
2018-07-09T07:29:17.424Z,16.37
2018-07-09T07:31:45.798Z,14.43
2018-07-09T07:34:14.247Z,15.03
2018-07-09T07:36:42.688Z,11.90
2018-07-09T07:39:11.179Z,13.53
2018-07-09T07:41:39.548Z,13.83
2018-07-09T07:44:07.932Z,12.30
2018-07-09T07:46:36.720Z,12.07
2018-07-09T07:49:05.196Z,10.83
2018-07-09T07:51:33.673Z,15.63
2018-07-09T07:54:02.053Z,12.33
2018-07-09T07:56:30.778Z,11.47
2018-07-09T07:58:59.557Z,10.70
2018-07-09T08:01:27.977Z,10.63
2018-07-09T08:03:56.410Z,11.07
2018-07-09T08:13:27.996Z,11.40
2018-07-09T08:15:40.427Z,9.83
2018-07-09T08:18:09.179Z,16.03
2018-07-09T08:20:37.576Z,12.77
2018-07-09T08:23:06.131Z,11.13
2018-07-09T08:25:34.678Z,13.83
2018-07-09T08:28:03.454Z,11.70
2018-07-09T08:30:32.185Z,8.77
2018-07-09T08:33:00.730Z,10.73
2018-07-09T08:35:29.083Z,8.37
2018-07-09T08:37:57.595Z,7.40
2018-07-09T08:40:27.221Z,9.40
2018-07-09T08:42:55.393Z,9.70
2018-07-09T08:45:23.789Z,8.07
2018-07-09T08:47:52.287Z,7.50
2018-07-09T08:50:21.064Z,6.97
2018-07-09T08:52:49.430Z,9.07
2018-07-09T08:55:17.852Z,6.17
2018-07-09T08:57:46.260Z,6.80
2018-07-09T09:00:14.632Z,8.50
2018-07-09T09:02:43.136Z,10.20
2018-07-09T09:05:11.790Z,9.93
2018-07-09T09:07:40.327Z,6.37
2018-07-09T09:10:08.850Z,7.30
2018-07-09T09:12:37.343Z,6.97
2018-07-09T09:15:05.787Z,7.00
2018-07-09T09:17:34.216Z,8.93
2018-07-09T09:20:02.720Z,9.93
2018-07-09T09:22:31.158Z,9.07
2018-07-09T09:24:59.628Z,13.93
2018-07-09T09:27:28.095Z,9.63
2018-07-09T09:29:56.534Z,8.93
2018-07-09T09:32:25.358Z,8.93
2018-07-09T09:34:53.717Z,8.37
2018-07-09T09:37:22.405Z,9.73
2018-07-09T09:39:50.958Z,8.77
2018-07-09T09:42:19.427Z,10.13
2018-07-09T09:46:17.281Z,9.10
2018-07-09T09:48:45.632Z,9.33
2018-07-09T09:51:13.784Z,8.87
2018-07-09T09:53:42.342Z,7.57
2018-07-09T09:56:10.876Z,7.33
2018-07-09T09:58:39.275Z,10.17
2018-07-09T10:01:08.684Z,11.47
2018-07-09T10:03:37.132Z,7.13
2018-07-09T10:06:05.723Z,9.83
2018-07-09T10:08:34.096Z,5.97
2018-07-09T10:11:02.468Z,6.73
2018-07-09T10:13:30.854Z,6.17
2018-07-09T10:15:59.270Z,7.50
2018-07-09T10:18:27.663Z,7.53
2018-07-09T10:20:56.155Z,7.57
2018-07-09T10:23:24.547Z,9.77
2018-07-09T10:25:52.924Z,6.10
2018-07-09T10:28:21.391Z,8.10
2018-07-09T10:30:50.078Z,8.83
2018-07-09T10:33:18.714Z,7.80
2018-07-09T10:35:47.146Z,11.73
2018-07-09T10:38:15.816Z,10.50
2018-07-09T10:40:44.220Z,8.87
2018-07-09T10:43:12.627Z,6.27
2018-07-09T10:45:40.981Z,9.63
2018-07-09T10:48:09.431Z,5.20
2018-07-09T10:50:37.900Z,5.97
2018-07-09T10:53:06.332Z,4.57
2018-07-09T10:55:34.685Z,6.77
2018-07-09T10:58:03.078Z,9.73
2018-07-09T11:00:31.683Z,6.57
2018-07-09T11:03:00.164Z,6.67
2018-07-09T11:05:28.881Z,7.57
2018-07-09T11:07:57.362Z,6.77
2018-07-09T11:10:25.713Z,8.17
2018-07-09T11:12:54.464Z,5.00
2018-07-09T11:15:22.556Z,11.37
2018-07-09T11:17:50.938Z,6.33
2018-07-09T11:20:19.371Z,9.47
2018-07-09T11:22:48.260Z,8.63
2018-07-09T11:25:16.697Z,8.40
2018-07-09T11:27:45.087Z,7.73
2018-07-09T11:30:13.426Z,8.97
2018-07-09T11:32:41.955Z,8.67
2018-07-09T11:35:10.422Z,10.50
2018-07-09T11:37:38.852Z,6.23
2018-07-09T11:40:07.243Z,6.23
2018-07-09T11:42:35.694Z,6.23
2018-07-09T11:45:04.117Z,5.87
2018-07-09T11:47:32.548Z,8.27
2018-07-09T11:50:01.246Z,6.83
2018-07-09T11:52:29.684Z,5.83
2018-07-09T11:54:58.372Z,4.20
2018-07-09T11:57:26.803Z,5.67
2018-07-09T11:59:55.243Z,3.23
2018-07-09T12:02:23.932Z,3.43
2018-07-09T12:04:52.466Z,5.80
2018-07-09T12:07:21.045Z,4.97
2018-07-09T12:09:49.174Z,4.53
2018-07-09T12:12:17.567Z,3.67
2018-07-09T12:14:46.068Z,4.58
2018-07-09T12:17:14.538Z,3.13
2018-07-09T12:19:42.914Z,3.67
2018-07-09T12:22:11.362Z,5.00
2018-07-09T12:24:39.741Z,3.83
2018-07-09T12:27:08.157Z,2.33
2018-07-09T12:29:36.857Z,5.77
2018-07-09T12:32:05.228Z,4.50
2018-07-09T12:34:33.699Z,4.50
2018-07-09T12:37:02.165Z,5.73
2018-07-09T12:39:30.522Z,4.90
2018-07-09T12:41:58.646Z,4.00
2018-07-09T12:44:27.724Z,4.47
2018-07-09T12:46:56.124Z,6.03
2018-07-09T12:49:24.848Z,4.17
2018-07-09T12:51:53.227Z,2.33
2018-07-09T12:54:21.684Z,4.77
2018-07-09T12:56:50.037Z,2.43
2018-07-09T12:59:18.550Z,4.07
2018-07-09T13:01:47.073Z,4.90
2018-07-09T13:04:15.754Z,3.37
2018-07-09T13:06:44.875Z,5.10
2018-07-09T13:09:13.321Z,3.63
2018-07-09T13:11:41.971Z,3.73
2018-07-09T13:14:10.673Z,3.43
2018-07-09T13:16:39.635Z,3.20
2018-07-09T13:19:08.092Z,2.50
2018-07-09T13:21:36.774Z,3.70
2018-07-09T13:24:05.180Z,3.17
2018-07-09T13:26:33.611Z,5.73
2018-07-09T13:29:02.066Z,4.20
2018-07-09T13:31:30.522Z,4.57
2018-07-09T13:33:59.169Z,2.30
2018-07-09T13:36:27.804Z,2.87
2018-07-09T13:38:56.248Z,3.53
2018-07-09T13:41:24.743Z,4.37
2018-07-09T13:43:53.256Z,3.70
2018-07-09T13:46:21.773Z,3.27
2018-07-09T13:48:50.249Z,4.63
2018-07-09T13:51:18.653Z,3.03
2018-07-09T13:53:47.881Z,2.53
2018-07-09T13:56:16.270Z,2.07
2018-07-09T13:58:44.711Z,1.70
2018-07-09T14:01:13.186Z,4.07
2018-07-09T14:03:41.536Z,3.43
2018-07-09T14:06:10.404Z,3.30
2018-07-09T14:08:38.833Z,5.70
2018-07-09T14:11:07.225Z,4.30
2018-07-09T14:13:35.633Z,6.33
2018-07-09T14:16:03.972Z,3.30
2018-07-09T14:18:32.724Z,2.83
2018-07-09T14:21:01.440Z,5.90
2018-07-09T14:23:30.340Z,4.53
2018-07-09T14:25:59.166Z,8.73
2018-07-09T14:28:27.397Z,2.40
2018-07-09T14:30:55.793Z,4.00
2018-07-09T14:33:24.153Z,4.43
2018-07-09T14:35:52.633Z,2.47
2018-07-09T14:38:21.036Z,3.93
2018-07-09T14:40:49.418Z,3.10
2018-07-09T14:43:17.816Z,2.70
2018-07-09T14:45:46.341Z,3.10
2018-07-09T14:48:15.001Z,3.73
2018-07-09T14:50:43.437Z,3.00
2018-07-09T14:53:11.833Z,3.87
2018-07-09T14:55:40.235Z,4.83
2018-07-09T14:58:08.576Z,4.83
2018-07-09T15:00:36.951Z,4.23
2018-07-09T15:03:05.362Z,4.27
2018-07-09T15:05:33.771Z,3.97
2018-07-09T15:08:02.129Z,5.87
2018-07-09T15:10:30.526Z,6.67
2018-07-09T15:12:59.074Z,4.50
2018-07-09T15:15:27.590Z,7.43
2018-07-09T15:17:56.265Z,6.63
2018-07-09T15:20:24.707Z,4.60
2018-07-09T15:22:53.234Z,6.93
2018-07-09T15:25:21.675Z,6.20
2018-07-09T15:27:50.104Z,6.07
2018-07-09T15:30:18.636Z,6.97
2018-07-09T15:32:47.023Z,5.43
2018-07-09T15:35:15.529Z,6.45
2018-07-09T15:37:44.253Z,8.20
2018-07-09T15:40:12.803Z,4.07
2018-07-09T15:42:42.153Z,3.93
2018-07-09T15:45:10.621Z,6.07
2018-07-09T15:47:39.481Z,4.07
2018-07-09T15:50:08.127Z,6.70
2018-07-09T15:52:36.575Z,6.50
2018-07-09T15:55:04.722Z,4.70
2018-07-09T15:57:33.114Z,6.80
2018-07-09T16:00:01.968Z,8.50
2018-07-09T16:02:30.530Z,6.43
2018-07-09T16:05:05.530Z,3.90
2018-07-09T16:07:33.950Z,5.90
2018-07-09T16:10:02.384Z,5.73
2018-07-09T16:12:30.927Z,5.37
2018-07-09T16:14:59.611Z,6.93
2018-07-09T16:17:27.950Z,4.30
2018-07-09T16:19:56.701Z,4.50
2018-07-09T16:22:25.314Z,5.20
2018-07-09T16:24:53.975Z,4.77
2018-07-09T16:27:22.557Z,7.27
2018-07-09T16:29:50.938Z,7.23
2018-07-09T16:32:19.398Z,5.20
2018-07-09T16:34:47.811Z,3.53
2018-07-09T16:37:16.213Z,5.90
2018-07-09T16:39:44.688Z,7.57
2018-07-09T16:42:13.135Z,4.43
2018-07-09T16:44:41.576Z,5.90
2018-07-09T16:47:09.956Z,7.23
2018-07-09T16:49:38.371Z,6.53
2018-07-09T16:52:07.374Z,5.17
2018-07-09T16:54:35.759Z,10.20
2018-07-09T16:57:03.851Z,5.70
2018-07-09T16:59:32.263Z,4.37
2018-07-09T17:02:00.680Z,7.80
2018-07-09T17:04:29.178Z,7.33
2018-07-09T17:06:57.908Z,5.87
2018-07-09T17:09:26.416Z,6.77
2018-07-09T17:11:54.837Z,6.10
2018-07-09T17:14:23.415Z,5.13
2018-07-09T17:16:51.923Z,4.60
2018-07-09T17:19:20.337Z,7.03
2018-07-09T17:21:49.278Z,5.07
2018-07-09T17:24:17.717Z,4.90
2018-07-09T17:26:46.490Z,7.53
2018-07-09T17:29:14.850Z,5.07
2018-07-09T17:31:43.255Z,5.57
2018-07-09T17:34:11.733Z,4.67
2018-07-09T17:36:40.846Z,4.67
2018-07-09T17:39:09.243Z,4.47
2018-07-09T17:41:37.553Z,4.70
2018-07-09T17:44:06.028Z,5.30
2018-07-09T17:46:34.355Z,5.53
2018-07-09T17:49:02.466Z,5.67
2018-07-09T17:51:31.201Z,6.93
2018-07-09T17:53:59.592Z,6.83
2018-07-09T17:56:28.079Z,5.80
2018-07-09T17:58:56.550Z,6.83
2018-07-09T18:01:24.935Z,6.07
2018-07-09T18:03:53.340Z,5.43
2018-07-09T18:06:21.759Z,7.00
2018-07-09T18:08:50.155Z,7.17
2018-07-09T18:11:18.590Z,8.90
2018-07-09T18:13:46.997Z,8.67
2018-07-09T18:16:15.829Z,8.70
2018-07-09T18:18:44.296Z,8.17
2018-07-09T18:21:12.790Z,8.20
2018-07-09T18:23:41.176Z,6.67
2018-07-09T18:26:09.581Z,9.47
2018-07-09T18:28:37.989Z,9.13
2018-07-09T18:33:14.023Z,6.33
2018-07-09T18:35:42.683Z,7.87
2018-07-09T18:38:11.328Z,9.10
2018-07-09T18:40:39.859Z,9.20
2018-07-09T18:43:08.645Z,7.47
2018-07-09T18:45:37.146Z,7.73
2018-07-09T18:48:05.847Z,7.77
2018-07-09T18:50:34.678Z,8.27
2018-07-09T18:53:03.306Z,6.83
2018-07-09T18:55:32.076Z,9.23
2018-07-09T18:58:00.534Z,8.43
2018-07-09T19:00:29.346Z,7.03
2018-07-09T19:02:57.813Z,8.63
2018-07-09T19:07:09.528Z,9.40
2018-07-09T19:09:38.413Z,6.30
2018-07-09T19:12:07.576Z,8.70
2018-07-09T19:14:40.314Z,8.67
2018-07-09T19:18:18.786Z,9.53
2018-07-09T19:21:24.453Z,11.47
2018-07-09T19:23:52.438Z,7.17
2018-07-09T19:26:19.739Z,16.43
2018-07-09T19:28:47.084Z,11.80
2018-07-09T19:31:14.423Z,6.57
2018-07-09T19:33:41.837Z,9.37
2018-07-09T19:36:09.209Z,7.53
2018-07-09T19:38:37.329Z,11.27
2018-07-09T19:41:04.980Z,8.97
2018-07-09T19:43:32.331Z,7.67
2018-07-09T19:45:59.785Z,8.40
2018-07-09T19:48:27.125Z,7.23
2018-07-09T19:50:54.843Z,6.93
2018-07-09T19:53:22.182Z,8.50
2018-07-09T19:55:49.510Z,5.57
2018-07-09T19:58:16.863Z,6.07
2018-07-09T20:00:44.381Z,7.43
2018-07-09T20:03:11.903Z,10.37
2018-07-09T20:05:39.260Z,7.93
2018-07-09T20:08:07.292Z,8.47
2018-07-09T20:10:40.424Z,7.10
2018-07-09T20:13:13.780Z,5.50
2018-07-09T20:15:46.365Z,6.73
2018-07-09T20:18:13.674Z,6.17
2018-07-09T20:20:40.972Z,8.17
2018-07-09T20:23:08.721Z,8.13
2018-07-09T20:25:36.308Z,10.10
2018-07-09T20:28:03.903Z,5.73
2018-07-09T20:30:31.267Z,7.67
2018-07-09T20:32:58.624Z,12.33
2018-07-09T20:35:25.980Z,8.40
2018-07-09T20:37:53.314Z,5.30
2018-07-09T20:40:20.881Z,8.67
2018-07-09T20:42:48.264Z,9.87
2018-07-09T20:45:15.894Z,12.73
2018-07-09T20:47:43.248Z,12.77
2018-07-09T20:50:10.670Z,11.23
2018-07-09T20:52:38.251Z,9.27
2018-07-09T20:55:05.640Z,7.07
2018-07-09T20:57:32.999Z,8.17
2018-07-09T21:00:00.323Z,9.63
2018-07-09T21:02:28.594Z,5.30
2018-07-09T21:04:55.908Z,7.97
2018-07-09T21:07:23.263Z,6.83
2018-07-09T21:09:50.674Z,11.77
2018-07-09T21:12:17.985Z,6.70
2018-07-09T21:14:45.817Z,3.80
2018-07-09T21:17:13.200Z,6.47
2018-07-09T21:19:40.585Z,6.37
2018-07-09T21:22:08.001Z,8.43
2018-07-09T21:24:35.279Z,6.33
2018-07-09T21:27:02.571Z,3.83
2018-07-09T21:29:30.010Z,6.77
2018-07-09T21:31:57.379Z,7.10
2018-07-09T21:34:24.703Z,4.93
2018-07-09T21:36:52.116Z,4.90
2018-07-09T21:39:19.387Z,4.80
2018-07-09T21:41:46.699Z,6.67
2018-07-09T21:44:14.132Z,8.00
2018-07-09T21:46:41.498Z,8.10
2018-07-09T21:49:09.071Z,3.00
2018-07-09T21:51:36.402Z,4.70
2018-07-09T21:54:03.839Z,6.63
2018-07-09T21:56:31.213Z,6.90
2018-07-09T21:58:58.518Z,2.77
2018-07-09T22:01:25.853Z,6.07
2018-07-09T22:03:53.170Z,7.47
2018-07-09T22:06:20.549Z,4.13
2018-07-09T22:08:47.849Z,7.40
2018-07-09T22:11:15.297Z,5.17
2018-07-09T22:13:42.773Z,5.47
2018-07-09T22:16:10.092Z,7.13
2018-07-09T22:18:37.581Z,5.40
2018-07-09T22:21:05.265Z,6.97
2018-07-09T22:23:32.610Z,5.07
2018-07-09T22:25:59.918Z,4.53
2018-07-09T22:28:27.281Z,6.40
2018-07-09T22:30:55.927Z,10.13
2018-07-09T22:33:24.319Z,6.07
2018-07-09T22:35:52.980Z,5.87
2018-07-09T22:38:21.404Z,6.77
2018-07-09T22:40:49.816Z,6.80
2018-07-09T22:43:29.519Z,4.53
2018-07-09T22:45:58.221Z,3.93
2018-07-09T22:48:26.627Z,7.17
2018-07-09T22:50:55.392Z,7.20
2018-07-09T22:53:23.791Z,6.03
2018-07-09T22:56:05.776Z,5.67
2018-07-09T22:58:34.391Z,4.00
2018-07-09T23:01:03.480Z,7.47
2018-07-09T23:03:31.974Z,11.63
2018-07-09T23:06:00.365Z,7.87
2018-07-09T23:08:29.063Z,9.17
2018-07-09T23:13:14.599Z,8.80
2018-07-09T23:15:54.577Z,9.87
2018-07-09T23:18:34.722Z,4.27
2018-07-09T23:21:08.433Z,5.37
2018-07-09T23:23:35.740Z,6.70
2018-07-09T23:26:03.066Z,5.33
2018-07-09T23:28:30.360Z,6.60
2018-07-09T23:30:57.699Z,3.10
2018-07-09T23:33:24.980Z,6.50
2018-07-09T23:35:52.250Z,7.40
2018-07-09T23:38:19.573Z,4.50
2018-07-09T23:40:46.891Z,8.33
2018-07-09T23:43:14.203Z,6.70
2018-07-09T23:45:41.501Z,8.17
2018-07-09T23:48:08.781Z,6.63
2018-07-09T23:50:36.377Z,4.20
2018-07-09T23:53:03.675Z,9.60
2018-07-09T23:55:33.768Z,5.40
2018-07-09T23:58:12.404Z,3.70
